Time,TemperatureF,DewpointF,PressureIn,WindDirection,WindDirectionDegrees,WindSpeedMPH,WindSpeedGustMPH,Humidity,HourlyPrecipIn,Conditions,Clouds,dailyrainin,SoftwareType,DateUTC
2013-12-04 00:13:00,45.3,43.7,29.70,SE,135,0.0,-999.0,94,-99.99,,,0.00,Acu-Link.com,2013-12-04 05:13:00,
2013-12-04 00:28:00,45.3,43.7,29.69,ESE,112,3.7,-999.0,94,-99.99,,,0.00,Acu-Link.com,2013-12-04 05:28:00,
2013-12-04 00:43:00,45.0,43.4,29.70,SSE,157,2.7,-999.0,94,-99.99,,,0.00,Acu-Link.com,2013-12-04 05:43:00,
2013-12-04 01:03:00,44.1,42.8,29.70,SSE,157,0.0,-999.0,95,-99.99,,,0.00,Acu-Link.com,2013-12-04 06:03:00,
2013-12-04 01:18:00,44.1,42.8,29.70,ESE,112,0.0,-999.0,95,-99.99,,,0.00,Acu-Link.com,2013-12-04 06:18:00,
2013-12-04 01:33:00,43.7,42.4,29.70,SE,135,0.0,-999.0,95,-99.99,,,0.00,Acu-Link.com,2013-12-04 06:33:00,
2013-12-04 01:48:00,43.5,42.4,29.71,SE,135,0.0,-999.0,96,-99.99,,,0.00,Acu-Link.com,2013-12-04 06:48:00,
2013-12-04 02:03:00,43.9,42.8,29.71,SE,135,0.0,-999.0,96,-99.99,,,0.00,Acu-Link.com,2013-12-04 07:03:00,
2013-12-04 02:18:00,43.9,42.8,29.72,SE,135,0.0,-999.0,96,-99.99,,,0.00,Acu-Link.com,2013-12-04 07:18:00,
2013-12-04 02:33:00,44.6,43.8,29.72,SE,135,1.7,-999.0,97,-99.99,,,0.00,Acu-Link.com,2013-12-04 07:33:00,
2013-12-04 02:49:00,45.0,44.2,29.72,SE,135,1.1,-999.0,97,-99.99,,,0.00,Acu-Link.com,2013-12-04 07:49:00,
2013-12-04 03:04:00,45.3,44.2,29.73,SSE,157,0.0,-999.0,96,-99.99,,,0.00,Acu-Link.com,2013-12-04 08:04:00,
2013-12-04 03:19:00,45.7,44.6,29.73,SE,135,0.0,-999.0,96,-99.99,,,0.00,Acu-Link.com,2013-12-04 08:19:00,
2013-12-04 03:34:00,46.0,44.9,29.73,SSW,202,0.0,-999.0,96,-99.99,,,0.00,Acu-Link.com,2013-12-04 08:34:00,
2013-12-04 03:49:00,46.6,45.5,29.73,SSE,157,0.0,-999.0,96,-99.99,,,0.00,Acu-Link.com,2013-12-04 08:49:00,
2013-12-04 04:04:00,47.1,46.0,29.73,South,180,1.7,-999.0,96,-99.99,,,0.00,Acu-Link.com,2013-12-04 09:04:00,
2013-12-04 04:19:00,47.7,46.6,29.72,East,90,0.0,-999.0,96,-99.99,,,0.00,Acu-Link.com,2013-12-04 09:19:00,
2013-12-04 04:34:00,48.0,46.9,29.73,SSW,202,2.2,-999.0,96,-99.99,,,0.00,Acu-Link.com,2013-12-04 09:34:00,
2013-12-04 04:50:00,48.0,46.9,29.72,SE,135,0.0,-999.0,96,-99.99,,,0.00,Acu-Link.com,2013-12-04 09:50:00,
2013-12-04 05:05:00,48.4,47.3,29.72,SE,135,0.0,-999.0,96,-99.99,,,0.00,Acu-Link.com,2013-12-04 10:05:00,
2013-12-04 05:20:00,48.7,47.6,29.72,ESE,112,1.1,-999.0,96,-99.99,,,0.00,Acu-Link.com,2013-12-04 10:20:00,
2013-12-04 05:35:00,48.9,47.8,29.72,SSE,157,1.7,-999.0,96,-99.99,,,0.00,Acu-Link.com,2013-12-04 10:35:00,
2013-12-04 05:50:00,48.9,47.8,29.72,SE,135,3.2,-999.0,96,-99.99,,,0.00,Acu-Link.com,2013-12-04 10:50:00,
2013-12-04 06:05:00,48.7,47.6,29.72,ESE,112,1.7,-999.0,96,-99.99,,,0.00,Acu-Link.com,2013-12-04 11:05:00,
2013-12-04 06:20:00,48.7,47.6,29.72,SE,135,3.7,-999.0,96,-99.99,,,0.00,Acu-Link.com,2013-12-04 11:20:00,
2013-12-04 06:35:00,48.7,47.6,29.72,ESE,112,2.2,-999.0,96,-99.99,,,0.00,Acu-Link.com,2013-12-04 11:35:00,
2013-12-04 06:50:00,48.7,47.6,29.72,SE,135,4.2,-999.0,96,-99.99,,,0.00,Acu-Link.com,2013-12-04 11:50:00,
2013-12-04 07:05:00,48.6,47.5,29.74,SSE,157,1.7,-999.0,96,-99.99,,,0.00,Acu-Link.com,2013-12-04 12:05:00,
2013-12-04 07:20:00,48.4,47.3,29.74,SSE,157,2.2,-999.0,96,-99.99,,,0.00,Acu-Link.com,2013-12-04 12:20:00,
2013-12-04 07:36:00,48.4,47.3,29.75,SE,135,0.0,-999.0,96,-99.99,,,0.00,Acu-Link.com,2013-12-04 12:36:00,
2013-12-04 07:51:00,48.6,47.5,29.74,SE,135,0.0,-999.0,96,-99.99,,,0.00,Acu-Link.com,2013-12-04 12:51:00,
2013-12-04 08:06:00,48.6,47.5,29.73,ESE,112,0.0,-999.0,96,-99.99,,,0.00,Acu-Link.com,2013-12-04 13:06:00,
2013-12-04 08:21:00,48.6,47.5,29.74,SE,135,0.0,-999.0,96,-99.99,,,0.00,Acu-Link.com,2013-12-04 13:21:00,
2013-12-04 08:36:00,48.6,47.5,29.74,SSE,157,0.0,-999.0,96,-99.99,,,0.00,Acu-Link.com,2013-12-04 13:36:00,
2013-12-04 08:51:00,48.9,47.8,29.73,SSE,157,2.7,-999.0,96,-99.99,,,0.00,Acu-Link.com,2013-12-04 13:51:00,
2013-12-04 09:06:00,49.1,48.0,29.72,ESE,112,3.7,-999.0,96,-99.99,,,0.00,Acu-Link.com,2013-12-04 14:06:00,
2013-12-04 09:21:00,49.5,48.4,29.72,SE,135,3.7,-999.0,96,-99.99,,,0.00,Acu-Link.com,2013-12-04 14:21:00,
2013-12-04 09:36:00,49.8,48.7,29.70,SE,135,3.2,-999.0,96,-99.99,,,0.00,Acu-Link.com,2013-12-04 14:36:00,
2013-12-04 09:52:00,50.0,48.9,29.70,SE,135,3.7,-999.0,96,-99.99,,,0.00,Acu-Link.com,2013-12-04 14:52:00,
2013-12-04 10:07:00,50.4,49.0,29.70,SSE,157,3.7,-999.0,95,-99.99,,,0.00,Acu-Link.com,2013-12-04 15:07:00,
2013-12-04 10:22:00,50.5,49.1,29.69,SSE,157,3.2,-999.0,95,-99.99,,,0.00,Acu-Link.com,2013-12-04 15:22:00,
2013-12-04 10:37:00,50.9,49.5,29.68,SE,135,2.7,-999.0,95,-99.99,,,0.00,Acu-Link.com,2013-12-04 15:37:00,
2013-12-04 10:52:00,50.9,49.5,29.68,ESE,112,3.2,-999.0,95,-99.99,,,0.00,Acu-Link.com,2013-12-04 15:52:00,
2013-12-04 11:07:00,51.3,49.9,29.68,SE,135,3.7,-999.0,95,-99.99,,,0.00,Acu-Link.com,2013-12-04 16:07:00,
2013-12-04 11:22:00,51.4,50.0,29.67,SE,135,2.7,-999.0,95,-99.99,,,0.00,Acu-Link.com,2013-12-04 16:22:00,
2013-12-04 11:37:00,51.8,50.4,29.67,SE,135,4.2,-999.0,95,-99.99,,,0.00,Acu-Link.com,2013-12-04 16:37:00,
2013-12-04 11:52:00,52.0,50.6,29.65,SE,135,5.3,-999.0,95,-99.99,,,0.00,Acu-Link.com,2013-12-04 16:52:00,
2013-12-04 12:08:00,52.5,51.1,29.65,SSE,157,3.2,-999.0,95,-99.99,,,0.00,Acu-Link.com,2013-12-04 17:08:00,
2013-12-04 12:23:00,52.7,51.3,29.63,SE,135,4.2,-999.0,95,-99.99,,,0.00,Acu-Link.com,2013-12-04 17:23:00,
2013-12-04 12:38:00,52.9,51.5,29.62,ESE,112,2.2,-999.0,95,-99.99,,,0.01,Acu-Link.com,2013-12-04 17:38:00,
2013-12-04 12:53:00,53.2,51.8,29.61,SE,135,4.2,-999.0,95,-99.99,,,0.01,Acu-Link.com,2013-12-04 17:53:00,
2013-12-04 13:08:00,53.6,52.2,29.60,SSW,202,4.2,-999.0,95,-99.99,,,0.01,Acu-Link.com,2013-12-04 18:08:00,
2013-12-04 13:23:00,54.1,52.7,29.60,SSE,157,3.2,-999.0,95,-99.99,,,0.01,Acu-Link.com,2013-12-04 18:23:00,
2013-12-04 13:38:00,54.7,53.3,29.60,SW,225,3.7,-999.0,95,-99.99,,,0.01,Acu-Link.com,2013-12-04 18:38:00,
2013-12-04 13:53:00,55.4,54.0,29.59,SSE,157,3.2,-999.0,95,-99.99,,,0.01,Acu-Link.com,2013-12-04 18:53:00,
2013-12-04 14:09:00,56.3,54.9,29.59,SSW,202,6.3,-999.0,95,-99.99,,,0.01,Acu-Link.com,2013-12-04 19:09:00,
2013-12-04 14:24:00,56.5,55.1,29.58,SSW,202,2.7,-999.0,95,-99.99,,,0.01,Acu-Link.com,2013-12-04 19:24:00,
2013-12-04 14:39:00,56.8,55.4,29.58,SSW,202,3.7,-999.0,95,-99.99,,,0.01,Acu-Link.com,2013-12-04 19:39:00,
2013-12-04 14:54:00,57.2,55.8,29.57,NNE,22,6.3,-999.0,95,-99.99,,,0.01,Acu-Link.com,2013-12-04 19:54:00,
2013-12-04 15:09:00,57.4,56.0,29.57,SSW,202,5.3,-999.0,95,-99.99,,,0.01,Acu-Link.com,2013-12-04 20:09:00,
2013-12-04 15:24:00,58.1,56.4,29.56,SSE,157,1.7,-999.0,94,-99.99,,,0.01,Acu-Link.com,2013-12-04 20:24:00,
2013-12-04 15:39:00,58.6,56.9,29.56,SE,135,3.2,-999.0,94,-99.99,,,0.01,Acu-Link.com,2013-12-04 20:39:00,
2013-12-04 15:55:00,59.0,57.3,29.56,SSE,157,2.2,-999.0,94,-99.99,,,0.01,Acu-Link.com,2013-12-04 20:55:00,
2013-12-04 16:10:00,59.2,57.2,29.55,SSE,157,4.7,-999.0,93,-99.99,,,0.01,Acu-Link.com,2013-12-04 21:10:00,
2013-12-04 16:25:00,59.4,57.4,29.55,SSW,202,2.7,-999.0,93,-99.99,,,0.01,Acu-Link.com,2013-12-04 21:25:00,
2013-12-04 16:40:00,59.2,57.2,29.54,South,180,3.2,-999.0,93,-99.99,,,0.01,Acu-Link.com,2013-12-04 21:40:00,
2013-12-04 16:55:00,59.2,57.2,29.54,SE,135,2.2,-999.0,93,-99.99,,,0.01,Acu-Link.com,2013-12-04 21:55:00,
2013-12-04 17:10:00,58.8,56.8,29.54,SSW,202,1.1,-999.0,93,-99.99,,,0.01,Acu-Link.com,2013-12-04 22:10:00,
2013-12-04 17:25:00,58.8,56.8,29.55,WSW,247,2.2,-999.0,93,-99.99,,,0.01,Acu-Link.com,2013-12-04 22:25:00,
2013-12-04 17:40:00,58.3,56.6,29.55,SSE,157,1.7,-999.0,94,-99.99,,,0.01,Acu-Link.com,2013-12-04 22:40:00,
2013-12-04 17:55:00,57.9,56.2,29.56,SSE,157,0.0,-999.0,94,-99.99,,,0.01,Acu-Link.com,2013-12-04 22:55:00,
2013-12-04 18:11:00,57.7,56.0,29.55,SSE,157,1.7,-999.0,94,-99.99,,,0.01,Acu-Link.com,2013-12-04 23:11:00,
2013-12-04 18:26:00,57.6,55.9,29.56,ESE,112,0.0,-999.0,94,-99.99,,,0.01,Acu-Link.com,2013-12-04 23:26:00,
2013-12-04 18:41:00,57.6,56.2,29.55,SE,135,0.0,-999.0,95,-99.99,,,0.01,Acu-Link.com,2013-12-04 23:41:00,
2013-12-04 18:56:00,57.0,55.6,29.56,SSE,157,0.0,-999.0,95,-99.99,,,0.01,Acu-Link.com,2013-12-04 23:56:00,
2013-12-04 19:11:00,57.0,55.6,29.56,SE,135,0.0,-999.0,95,-99.99,,,0.01,Acu-Link.com,2013-12-05 00:11:00,
2013-12-04 19:26:00,56.7,55.3,29.56,SSE,157,0.0,-999.0,95,-99.99,,,0.01,Acu-Link.com,2013-12-05 00:26:00,
2013-12-04 19:41:00,56.7,55.3,29.56,SE,135,0.0,-999.0,95,-99.99,,,0.01,Acu-Link.com,2013-12-05 00:41:00,
2013-12-04 19:56:00,56.5,55.1,29.57,WSW,247,0.0,-999.0,95,-99.99,,,0.01,Acu-Link.com,2013-12-05 00:56:00,
2013-12-04 20:11:00,55.9,54.5,29.57,SE,135,0.0,-999.0,95,-99.99,,,0.01,Acu-Link.com,2013-12-05 01:11:00,
2013-12-04 20:26:00,55.4,54.3,29.58,SSE,157,0.0,-999.0,96,-99.99,,,0.01,Acu-Link.com,2013-12-05 01:26:00,
2013-12-04 20:42:00,55.8,54.7,29.58,SSW,202,0.0,-999.0,96,-99.99,,,0.01,Acu-Link.com,2013-12-05 01:42:00,
2013-12-04 20:57:00,56.5,55.4,29.59,SSW,202,4.7,-999.0,96,-99.99,,,0.01,Acu-Link.com,2013-12-05 01:57:00,
2013-12-04 21:12:00,56.8,55.4,29.59,South,180,2.7,-999.0,95,-99.99,,,0.01,Acu-Link.com,2013-12-05 02:12:00,
2013-12-04 21:27:00,57.6,55.9,29.60,South,180,5.8,-999.0,94,-99.99,,,0.01,Acu-Link.com,2013-12-05 02:27:00,
2013-12-04 21:42:00,58.8,56.8,29.61,WSW,247,2.2,-999.0,93,-99.99,,,0.01,Acu-Link.com,2013-12-05 02:42:00,
2013-12-04 21:57:00,59.7,57.7,29.61,NW,315,3.2,-999.0,93,-99.99,,,0.01,Acu-Link.com,2013-12-05 02:57:00,
2013-12-04 22:12:00,60.3,58.0,29.61,WNW,292,0.0,-999.0,92,-99.99,,,0.01,Acu-Link.com,2013-12-05 03:12:00,
2013-12-04 22:27:00,61.0,58.7,29.62,SSE,157,8.3,-999.0,92,-99.99,,,0.01,Acu-Link.com,2013-12-05 03:27:00,
2013-12-04 22:42:00,61.5,59.2,29.62,NE,45,7.3,-999.0,92,-99.99,,,0.01,Acu-Link.com,2013-12-05 03:42:00,
2013-12-04 22:58:00,61.3,59.0,29.63,SSW,202,5.8,-999.0,92,-99.99,,,0.01,Acu-Link.com,2013-12-05 03:58:00,
2013-12-04 23:13:00,60.4,58.1,29.63,SSW,202,2.2,-999.0,92,-99.99,,,0.01,Acu-Link.com,2013-12-05 04:13:00,
2013-12-04 23:28:00,60.3,58.0,29.64,WSW,247,4.2,-999.0,92,-99.99,,,0.01,Acu-Link.com,2013-12-05 04:28:00,
2013-12-04 23:43:00,59.7,57.4,29.65,West,270,2.2,-999.0,92,-99.99,,,0.01,Acu-Link.com,2013-12-05 04:43:00,
2013-12-04 23:58:00,59.2,56.9,29.65,SW,225,3.7,-999.0,92,-99.99,,,0.01,Acu-Link.com,2013-12-05 04:58:00,